WEATHER DATA

YESTERDAY
Time Temp. Dewp. Hum. Wind dir Wind speed Wind gust Bar. 1h Prec. 24h Prec.
00:03 16.9 11.8 72 225 1.4 1.9 1017.7 0.0000 0.0000
00:24 16.6 11.7 73 225 1.4 2.2 1017.8 0.0000 0.0000
00:34 16.5 11.9 74 226 1.4 1.9 1017.8 0.0000 0.0000
00:44 16.4 11.8 74 223 1.4 1.9 1017.9 0.0000 0.0000
00:54 16.3 11.7 74 222 1.4 1.9 1017.7 0.0000 0.0000
01:04 16.2 11.6 74 225 1.4 2.2 1017.7 0.0000 0.0000
01:14 16.1 11.7 75 226 1.4 1.9 1017.8 0.0000 0.0000
01:25 15.9 11.5 75 229 1.4 1.9 1017.6 0.0000 0.0000
01:34 15.8 11.4 75 225 1.4 1.9 1017.8 0.0000 0.0000
01:44 15.7 11.5 76 225 1.4 2.2 1017.8 0.0000 0.0000
01:55 15.5 11.3 76 223 1.4 2.2 1017.8 0.0000 0.0000
02:05 15.3 11.1 76 223 1.4 1.9 1017.8 0.0000 0.0000
02:15 15.2 11 76 225 1.4 1.9 1017.7 0.0000 0.0000
02:24 15.1 10.9 76 223 1.4 1.9 1017.7 0.0000 0.0000
02:35 15 11 77 225 1.4 2.2 1017.4 0.0000 0.0000
02:45 14.9 10.9 77 230 1.4 1.9 1017.2 0.0000 0.0000
02:55 14.9 10.9 77 225 1.1 1.9 1017.1 0.0000 0.0000
03:05 14.8 10.8 77 223 1.1 1.9 1017.2 0.0000 0.0000
03:15 14.7 10.7 77 225 1.4 1.9 1017.2 0.0000 0.0000
03:25 14.6 10.6 77 230 1.4 2.2 1017.2 0.0000 0.0000
03:35 14.4 10.6 78 225 1.4 1.9 1017.1 0.0000 0.0000
03:46 14.4 10.6 78 226 1.4 1.9 1017.1 0.0000 0.0000
03:55 14.4 10.4 77 222 1.4 2.2 1017.1 0.0000 0.0000
04:05 14.4 10.4 77 223 1.1 1.9 1016.9 0.0000 0.0000
04:15 14.3 10.3 77 226 1.4 2.2 1016.8 0.0000 0.0000
04:26 14.3 10.3 77 223 1.4 1.9 1016.7 0.0000 0.0000
04:36 14.2 10.2 77 222 1.4 1.9 1016.5 0.0000 0.0000
04:45 14.1 10.1 77 221 1.1 1.9 1016.5 0.0000 0.0000
04:56 14 10.2 78 225 1.4 2.2 1016.4 0.0000 0.0000
05:06 13.9 10.1 78 223 1.1 1.9 1016.6 0.0000 0.0000
05:16 13.9 10.1 78 225 1.1 2.2 1016.4 0.0000 0.0000
05:26 14 10 77 223 1.1 1.9 1016.5 0.0000 0.0000
05:36 14 10 77 229 1.4 2.2 1016.4 0.0000 0.0000
05:46 14.1 9.9 76 225 1.4 2.2 1016.4 0.0000 0.0000
05:56 14.2 9.8 75 227 1.4 1.9 1016.4 0.0000 0.0000
06:07 14.2 9.8 75 228 1.4 1.9 1016.4 0.0000 0.0000
06:16 14.1 9.7 75 227 1.4 3.1 1016.4 0.0000 0.0000
06:26 14.1 9.7 75 227 1.4 2.2 1016.5 0.0000 0.0000
06:36 14.3 9.7 74 226 1.4 2.2 1016.6 0.0000 0.0000
06:47 14.4 9.8 74 228 1.4 2.2 1016.6 0.0000 0.0000
06:57 14.7 9.9 73 230 1.4 2.2 1016.5 0.0000 0.0000
07:06 15.1 10.1 72 228 1.4 3.1 1016.6 0.0000 0.0000
07:17 15.4 10.2 71 225 1.4 2.2 1016.6 0.0000 0.0000
07:27 15.7 10.3 70 227 1.4 1.9 1016.5 0.0000 0.0000
07:37 16.1 10.2 68 228 1.4 2.2 1016.6 0.0000 0.0000
07:47 16.4 10.3 67 234 1.4 1.9 1016.6 0.0000 0.0000
07:57 16.9 10.5 66 232 1.4 2.2 1016.5 0.0000 0.0000
08:07 17.4 10.8 65 228 1.4 3.1 1016.5 0.0000 0.0000
08:17 18.1 11 63 226 1.4 2.2 1016.5 0.0000 0.0000
08:28 18.6 10.9 61 228 1.4 2.2 1016.5 0.0000 0.0000
08:37 19.2 11 59 231 1.4 2.5 1016.3 0.0000 0.0000
08:47 19.8 11 57 230 1.7 2.5 1016.5 0.0000 0.0000
08:57 20.4 10.5 53 227 1.7 2.5 1016.4 0.0000 0.0000
09:08 20.9 11 53 232 1.7 2.2 1016.5 0.0000 0.0000
09:18 21.5 11.2 52 237 1.7 2.2 1016.4 0.0000 0.0000
09:27 22.2 11.9 52 237 1.7 2.2 1016.4 0.0000 0.0000
09:38 22.7 12.3 52 250 1.7 3.1 1016.2 0.0000 0.0000
09:48 22.9 12.2 51 277 1.7 3.1 1016.3 0.0000 0.0000
09:58 23.1 12.1 50 299 1.9 3.6 1016.2 0.0000 0.0000
10:08 23.2 12.5 51 256 1.7 3.1 1016.1 0.0000 0.0000
10:18 23.2 12.5 51 259 1.7 3.1 1016.2 0.0000 0.0000
10:28 23.4 12.7 51 254 1.7 3.1 1016.2 0.0000 0.0000
10:38 23.6 12 48 280 1.7 3.3 1016.3 0.0000 0.0000
10:49 23.7 12.4 49 293 1.9 3.6 1016 0.0000 0.0000
10:58 23.8 12.1 48 270 1.7 3.3 1016.1 0.0000 0.0000
11:08 23.9 12.2 48 287 1.9 3.3 1016 0.0000 0.0000
11:18 24.1 12.4 48 270 1.7 3.3 1016.2 0.0000 0.0000
11:29 24.1 12.1 47 270 1.7 3.1 1016.2 0.0000 0.0000
11:39 24.1 12.1 47 291 1.9 3.6 1016.2 0.0000 0.0000
11:48 23.9 12.9 50 306 1.9 3.9 1016.2 0.0000 0.0000
11:59 23.8 12.5 49 316 1.9 3.3 1016 0.0000 0.0000
12:09 23.8 13.4 52 284 1.7 3.1 1016 0.0000 0.0000
12:19 23.8 13.1 51 305 1.9 3.3 1015.8 0.0000 0.0000
12:29 23.9 13.2 51 322 1.9 3.3 1015.8 0.0000 0.0000
12:39 24 13.2 51 330 1.9 3.6 1015.7 0.0000 0.0000
12:49 24 13.5 52 328 1.9 3.6 1015.5 0.0000 0.0000
12:59 23.9 13.5 52 339 1.9 3.3 1015.5 0.0000 0.0000
13:10 24 13.5 52 355 2.2 3.6 1015.4 0.0000 0.0000
13:19 24.1 13.6 52 347 2.2 3.1 1015.4 0.0000 0.0000
13:29 24.2 14 53 295 1.7 2.5 1015.2 0.0000 0.0000
13:39 24.1 13.6 52 318 1.7 3.3 1015.1 0.0000 0.0000
13:50 24.2 13.7 52 309 1.7 3.1 1015 0.0000 0.0000
14:00 24.2 13.7 52 294 1.7 3.3 1014.8 0.0000 0.0000
14:09 24.2 13.7 52 293 1.7 3.3 1014.8 0.0000 0.0000
14:20 24.2 13.7 52 262 1.7 3.3 1014.6 0.0000 0.0000
14:30 24.3 14.1 53 246 1.7 2.5 1014.6 0.0000 0.0000
14:40 24.4 14.2 53 270 1.7 3.1 1014.6 0.0000 0.0000
14:49 24.4 14.2 53 251 1.4 2.5 1014.4 0.0000 0.0000
15:00 24.5 14.3 53 242 1.4 2.5 1014.4 0.0000 0.0000
15:10 24.5 14.6 54 251 1.4 2.5 1014.2 0.0000 0.0000
15:20 24.5 14.6 54 276 1.7 3.1 1014.1 0.0000 0.0000
15:30 24.5 14.6 54 286 1.7 2.5 1013.8 0.0000 0.0000
15:40 24.4 14.5 54 303 1.7 2.5 1013.7 0.0000 0.0000
15:50 24.1 14.5 55 270 1.7 2.5 1013.6 0.0000 0.0000
16:00 24 14.4 55 256 1.4 2.5 1013.6 0.0000 0.0000
16:11 23.9 14.3 55 278 1.7 3.1 1013.4 0.0000 0.0000
16:20 23.7 14.1 55 278 1.4 2.5 1013.5 0.0000 0.0000
16:30 23.6 14.3 56 250 1.4 2.2 1013.3 0.0000 0.0000
16:41 23.5 13.9 55 236 1.4 2.2 1013.2 0.0000 0.0000
16:51 23.4 13.9 55 221 1.4 2.2 1013.3 0.0000 0.0000
17:01 23.3 14 56 270 1.7 2.5 1013.1 0.0000 0.0000
17:10 23.3 14.3 57 311 1.7 2.5 1012.9 0.0000 0.0000
17:21 23.2 14.8 59 255 1.4 2.5 1012.8 0.0000 0.0000
17:31 23.1 14.7 59 233 1.4 2.2 1012.7 0.0000 0.0000
17:41 23 14 57 226 1.4 2.5 1012.7 0.0000 0.0000
17:51 22.9 14.2 58 215 1.4 2.2 1012.5 0.0000 0.0000
18:01 22.9 14.2 58 212 1.4 2.2 1012.6 0.0000 0.0000
18:11 22.8 13.3 55 222 1.4 1.9 1012.7 0.0000 0.0000
18:21 22.7 13.5 56 222 1.4 1.9 1012.5 0.0000 0.0000
18:32 22.6 13.1 55 208 1.7 2.2 1012.4 0.0000 0.0000
18:42 22.5 12.7 54 225 1.4 2.2 1012.4 0.0000 0.0000
18:51 22.5 12.7 54 225 1.4 1.9 1012.3 0.0000 0.0000
19:02 22.4 12.9 55 218 1.4 1.9 1012.2 0.0000 0.0000
19:12 22.4 11.8 51 209 1.4 1.9 1012.1 0.0000 0.0000
19:22 22.3 12 52 202 1.4 2.2 1012.2 0.0000 0.0000
19:32 22.2 11.6 51 208 1.4 2.2 1012 0.0000 0.0000
19:42 22.2 11.6 51 207 1.4 1.9 1012.2 0.0000 0.0000
19:52 22.1 11.8 52 196 1.4 2.2 1012.2 0.0000 0.0000
20:02 22 12 53 200 1.4 2.2 1012.1 0.0000 0.0000
20:12 21.9 12.2 54 208 1.4 1.9 1012.3 0.0000 0.0000
20:22 21.8 12.4 55 196 1.7 2.2 1012.1 0.0000 0.0000
20:32 21.7 12.8 57 192 1.7 2.2 1012.1 0.0000 0.0000
20:42 21.6 13.3 59 212 1.4 1.9 1012 0.0000 0.0000
20:53 21.5 12.6 57 219 1.4 1.9 1012.1 0.0000 0.0000
21:03 21.5 10.9 51 223 1.4 2.2 1012 0.0000 0.0000
21:13 21.5 11.2 52 222 1.4 1.9 1012.2 0.0000 0.0000
21:23 21.4 11.1 52 223 1.4 1.7 1012.1 0.0000 0.0000
21:33 21.3 11.3 53 225 1.4 1.9 1012.4 0.0000 0.0000
21:43 21.1 11.2 53 222 1.4 2.2 1012.5 0.0000 0.0000
21:53 20.7 11.1 54 225 1.4 1.9 1012.5 0.0000 0.0000
22:04 20.5 10.9 54 223 1.4 2.2 1012.6 0.0000 0.0000
22:13 20.5 10.9 54 221 1.4 2.5 1012.7 0.0000 0.0000
22:23 20.4 10.8 54 228 1.4 2.2 1012.6 0.0000 0.0000
22:33 20.3 10.7 54 228 1.4 2.2 1012.7 0.0000 0.0000
22:44 20.2 10.6 54 226 1.4 2.2 1012.6 0.0000 0.0000
22:53 20 10.7 55 223 1.4 1.9 1012.5 0.0000 0.0000
23:03 19.8 10.8 56 223 1.4 2.5 1012.4 0.0000 0.0000
23:14 19.5 10.5 56 221 1.4 2.2 1012.4 0.0000 0.0000
23:24 19.3 10.6 57 222 1.7 2.5 1012.4 0.0000 0.0000
23:34 19.1 10.7 58 221 1.4 2.2 1012.4 0.0000 0.0000
23:44 18.9 10.5 58 221 1.4 2.2 1012.5 0.0000 0.0000
23:54 18.6 10.4 59 221 1.4 2.2 1012.6 0.0000

DAY STATISTIC

2020-06-02
TEMPERATURE
AVERAGE
20.0
HIGH
24.5
15:00
LOW
13.9
05:06
PRESSURE
AVERAGE
1015.0
HIGH
1017.9
00:44
LOW
1012.0
19:32
DEWPOINT
AVERAGE
11.9
HIGH
14.8
17:21
LOW
9.7
06:16
HUMIDITY
AVERAGE
61
HIGH
78
03:35
LOW
47
11:29
WIND SPEED
AVERAGE
1.5
HIGH
2.2
13:10
WIND GUST
AVERAGE
2.4
HIGH
3.9
11:48
WIND DIRECTION
PREVAILING
SW
66.2%
N
2.1
NE
0.0
E
0.0
SE
0.0
S
3.5
SW
66.2
W
17.6
NW
10.6
PRECIPITATION
RAIN HOUR
0.0
RAIN DAY
0.0
TEMPERATURE (°C)
LOW
13.9
HIGH
24.5
AVERAGE
20.0
PRESSURE (hpa)
LOW
1012.0
HIGH
1017.9
AVERAGE
1015.0
DEVICE